sensor_id;sensor_type;location;lat;lon;timestamp;P1;durP1;ratioP1;P2;durP2;ratioP2
30096;SDS011;16915;51.466;3.610;2023-07-08T00:00:49;3.85;;;2.50;;
30096;SDS011;16915;51.466;3.610;2023-07-08T00:03:15;3.65;;;2.38;;
30096;SDS011;16915;51.466;3.610;2023-07-08T00:05:42;4.50;;;2.45;;
30096;SDS011;16915;51.466;3.610;2023-07-08T00:08:11;2.40;;;2.20;;
30096;SDS011;16915;51.466;3.610;2023-07-08T00:10:39;2.47;;;2.17;;
30096;SDS011;16915;51.466;3.610;2023-07-08T00:13:04;3.85;;;2.50;;
30096;SDS011;16915;51.466;3.610;2023-07-08T00:15:31;3.53;;;2.60;;
30096;SDS011;16915;51.466;3.610;2023-07-08T00:17:57;8.32;;;2.65;;
30096;SDS011;16915;51.466;3.610;2023-07-08T00:20:43;5.20;;;2.80;;
30096;SDS011;16915;51.466;3.610;2023-07-08T00:23:11;2.47;;;2.20;;
30096;SDS011;16915;51.466;3.610;2023-07-08T00:25:36;2.45;;;2.25;;
30096;SDS011;16915;51.466;3.610;2023-07-08T00:28:04;5.07;;;2.63;;
30096;SDS011;16915;51.466;3.610;2023-07-08T00:30:35;7.47;;;2.63;;
30096;SDS011;16915;51.466;3.610;2023-07-08T00:33:01;3.28;;;2.70;;
30096;SDS011;16915;51.466;3.610;2023-07-08T00:38:02;4.47;;;2.65;;
30096;SDS011;16915;51.466;3.610;2023-07-08T00:40:37;3.47;;;2.75;;
30096;SDS011;16915;51.466;3.610;2023-07-08T00:43:13;3.58;;;2.60;;
30096;SDS011;16915;51.466;3.610;2023-07-08T00:45:49;7.45;;;2.75;;
30096;SDS011;16915;51.466;3.610;2023-07-08T00:48:24;5.00;;;2.85;;
30096;SDS011;16915;51.466;3.610;2023-07-08T00:50:53;3.97;;;2.67;;
30096;SDS011;16915;51.466;3.610;2023-07-08T00:53:32;3.78;;;2.80;;
30096;SDS011;16915;51.466;3.610;2023-07-08T00:56:09;4.13;;;3.22;;
30096;SDS011;16915;51.466;3.610;2023-07-08T00:58:40;5.40;;;3.25;;
30096;SDS011;16915;51.466;3.610;2023-07-08T01:01:14;5.65;;;3.00;;
30096;SDS011;16915;51.466;3.610;2023-07-08T01:03:45;5.72;;;2.83;;
30096;SDS011;16915;51.466;3.610;2023-07-08T01:06:16;4.55;;;2.72;;
30096;SDS011;16915;51.466;3.610;2023-07-08T01:08:42;6.63;;;2.70;;
30096;SDS011;16915;51.466;3.610;2023-07-08T01:11:08;3.85;;;2.83;;
30096;SDS011;16915;51.466;3.610;2023-07-08T01:13:35;2.95;;;2.75;;
30096;SDS011;16915;51.466;3.610;2023-07-08T01:16:05;4.28;;;2.90;;
30096;SDS011;16915;51.466;3.610;2023-07-08T01:18:31;6.35;;;3.00;;
30096;SDS011;16915;51.466;3.610;2023-07-08T01:21:05;3.40;;;2.78;;
30096;SDS011;16915;51.466;3.610;2023-07-08T01:23:52;4.63;;;2.95;;
30096;SDS011;16915;51.466;3.610;2023-07-08T01:26:18;2.90;;;2.53;;
30096;SDS011;16915;51.466;3.610;2023-07-08T01:28:46;5.38;;;2.85;;
30096;SDS011;16915;51.466;3.610;2023-07-08T01:31:12;3.63;;;3.25;;
30096;SDS011;16915;51.466;3.610;2023-07-08T01:33:37;5.70;;;3.17;;
30096;SDS011;16915;51.466;3.610;2023-07-08T01:36:04;5.72;;;2.97;;
30096;SDS011;16915;51.466;3.610;2023-07-08T01:38:30;5.85;;;3.00;;
30096;SDS011;16915;51.466;3.610;2023-07-08T01:40:57;3.72;;;3.38;;
30096;SDS011;16915;51.466;3.610;2023-07-08T01:43:23;3.28;;;2.72;;
30096;SDS011;16915;51.466;3.610;2023-07-08T01:45:48;3.78;;;2.60;;
30096;SDS011;16915;51.466;3.610;2023-07-08T01:48:18;7.10;;;3.50;;
30096;SDS011;16915;51.466;3.610;2023-07-08T01:50:49;7.32;;;3.28;;
30096;SDS011;16915;51.466;3.610;2023-07-08T01:53:28;3.35;;;2.92;;
30096;SDS011;16915;51.466;3.610;2023-07-08T01:56:05;3.45;;;2.65;;
30096;SDS011;16915;51.466;3.610;2023-07-08T01:58:32;6.35;;;3.22;;
30096;SDS011;16915;51.466;3.610;2023-07-08T02:00:57;3.85;;;3.40;;
30096;SDS011;16915;51.466;3.610;2023-07-08T02:03:23;6.43;;;3.13;;
30096;SDS011;16915;51.466;3.610;2023-07-08T02:05:49;5.10;;;3.03;;
30096;SDS011;16915;51.466;3.610;2023-07-08T02:08:15;5.35;;;3.22;;
30096;SDS011;16915;51.466;3.610;2023-07-08T02:10:41;7.13;;;3.55;;
30096;SDS011;16915;51.466;3.610;2023-07-08T02:13:08;3.53;;;3.22;;
30096;SDS011;16915;51.466;3.610;2023-07-08T02:15:33;5.18;;;3.90;;
30096;SDS011;16915;51.466;3.610;2023-07-08T02:17:59;4.88;;;3.47;;
30096;SDS011;16915;51.466;3.610;2023-07-08T02:20:25;5.35;;;3.83;;
30096;SDS011;16915;51.466;3.610;2023-07-08T02:22:51;5.88;;;3.88;;
30096;SDS011;16915;51.466;3.610;2023-07-08T02:25:17;5.35;;;3.42;;
30096;SDS011;16915;51.466;3.610;2023-07-08T02:27:42;4.40;;;4.00;;
30096;SDS011;16915;51.466;3.610;2023-07-08T02:30:08;5.43;;;3.58;;
30096;SDS011;16915;51.466;3.610;2023-07-08T02:32:35;6.38;;;3.65;;
30096;SDS011;16915;51.466;3.610;2023-07-08T02:35:03;4.70;;;3.30;;
30096;SDS011;16915;51.466;3.610;2023-07-08T02:37:30;3.75;;;3.30;;
30096;SDS011;16915;51.466;3.610;2023-07-08T02:39:55;6.60;;;3.85;;
30096;SDS011;16915;51.466;3.610;2023-07-08T02:42:21;5.15;;;4.03;;
30096;SDS011;16915;51.466;3.610;2023-07-08T02:44:47;6.30;;;3.70;;
30096;SDS011;16915;51.466;3.610;2023-07-08T02:47:12;6.75;;;3.85;;
30096;SDS011;16915;51.466;3.610;2023-07-08T02:49:38;3.85;;;3.45;;
30096;SDS011;16915;51.466;3.610;2023-07-08T02:52:03;5.18;;;4.05;;
30096;SDS011;16915;51.466;3.610;2023-07-08T02:54:29;4.78;;;3.42;;
30096;SDS011;16915;51.466;3.610;2023-07-08T02:56:55;5.57;;;3.60;;
30096;SDS011;16915;51.466;3.610;2023-07-08T02:59:20;3.97;;;3.58;;
30096;SDS011;16915;51.466;3.610;2023-07-08T03:01:48;5.15;;;3.20;;
30096;SDS011;16915;51.466;3.610;2023-07-08T03:04:15;4.43;;;3.58;;
30096;SDS011;16915;51.466;3.610;2023-07-08T03:06:41;7.75;;;4.18;;
30096;SDS011;16915;51.466;3.610;2023-07-08T03:09:10;6.13;;;3.70;;
30096;SDS011;16915;51.466;3.610;2023-07-08T03:11:39;6.00;;;4.07;;
30096;SDS011;16915;51.466;3.610;2023-07-08T03:14:05;4.13;;;3.70;;
30096;SDS011;16915;51.466;3.610;2023-07-08T03:16:31;3.95;;;3.65;;
30096;SDS011;16915;51.466;3.610;2023-07-08T03:18:56;4.88;;;4.40;;
30096;SDS011;16915;51.466;3.610;2023-07-08T03:21:22;4.32;;;3.90;;
30096;SDS011;16915;51.466;3.610;2023-07-08T03:23:48;5.78;;;4.15;;
30096;SDS011;16915;51.466;3.610;2023-07-08T03:26:15;6.78;;;4.43;;
30096;SDS011;16915;51.466;3.610;2023-07-08T03:28:46;6.15;;;4.45;;
30096;SDS011;16915;51.466;3.610;2023-07-08T03:31:12;4.88;;;4.05;;
30096;SDS011;16915;51.466;3.610;2023-07-08T03:33:38;5.50;;;4.10;;
30096;SDS011;16915;51.466;3.610;2023-07-08T03:36:04;4.57;;;4.05;;
30096;SDS011;16915;51.466;3.610;2023-07-08T03:38:36;4.43;;;4.00;;
30096;SDS011;16915;51.466;3.610;2023-07-08T03:41:01;5.88;;;3.90;;
30096;SDS011;16915;51.466;3.610;2023-07-08T03:43:27;3.85;;;3.55;;
30096;SDS011;16915;51.466;3.610;2023-07-08T03:45:53;5.35;;;3.65;;
30096;SDS011;16915;51.466;3.610;2023-07-08T03:48:18;4.22;;;3.83;;
30096;SDS011;16915;51.466;3.610;2023-07-08T03:50:44;5.63;;;4.18;;
30096;SDS011;16915;51.466;3.610;2023-07-08T03:53:09;6.47;;;4.10;;
30096;SDS011;16915;51.466;3.610;2023-07-08T03:55:35;6.03;;;4.43;;
30096;SDS011;16915;51.466;3.610;2023-07-08T03:58:01;4.50;;;4.10;;
30096;SDS011;16915;51.466;3.610;2023-07-08T04:00:26;4.40;;;4.00;;
30096;SDS011;16915;51.466;3.610;2023-07-08T04:02:52;4.30;;;3.88;;
30096;SDS011;16915;51.466;3.610;2023-07-08T04:05:19;7.28;;;4.55;;
30096;SDS011;16915;51.466;3.610;2023-07-08T04:07:46;4.88;;;4.00;;
30096;SDS011;16915;51.466;3.610;2023-07-08T04:10:12;5.50;;;4.28;;
30096;SDS011;16915;51.466;3.610;2023-07-08T04:12:38;5.93;;;3.70;;
30096;SDS011;16915;51.466;3.610;2023-07-08T04:15:06;6.85;;;3.88;;
30096;SDS011;16915;51.466;3.610;2023-07-08T04:17:34;7.43;;;4.28;;
30096;SDS011;16915;51.466;3.610;2023-07-08T04:20:02;5.85;;;3.80;;
30096;SDS011;16915;51.466;3.610;2023-07-08T04:22:28;8.48;;;4.40;;
30096;SDS011;16915;51.466;3.610;2023-07-08T04:24:54;6.68;;;4.45;;
30096;SDS011;16915;51.466;3.610;2023-07-08T04:27:20;4.72;;;4.13;;
30096;SDS011;16915;51.466;3.610;2023-07-08T04:29:45;5.65;;;4.00;;
30096;SDS011;16915;51.466;3.610;2023-07-08T04:32:11;4.70;;;3.85;;
30096;SDS011;16915;51.466;3.610;2023-07-08T04:34:37;4.88;;;4.20;;
30096;SDS011;16915;51.466;3.610;2023-07-08T04:37:02;5.65;;;4.47;;
30096;SDS011;16915;51.466;3.610;2023-07-08T04:39:30;4.40;;;4.00;;
30096;SDS011;16915;51.466;3.610;2023-07-08T04:41:56;4.32;;;3.92;;
30096;SDS011;16915;51.466;3.610;2023-07-08T04:44:22;5.75;;;4.05;;
30096;SDS011;16915;51.466;3.610;2023-07-08T04:46:50;4.82;;;4.18;;
30096;SDS011;16915;51.466;3.610;2023-07-08T04:49:19;7.00;;;5.00;;
30096;SDS011;16915;51.466;3.610;2023-07-08T04:51:45;8.90;;;4.25;;
30096;SDS011;16915;51.466;3.610;2023-07-08T04:54:11;7.68;;;4.20;;
30096;SDS011;16915;51.466;3.610;2023-07-08T04:56:41;5.45;;;4.35;;
30096;SDS011;16915;51.466;3.610;2023-07-08T04:59:09;6.93;;;4.45;;
30096;SDS011;16915;51.466;3.610;2023-07-08T05:01:36;10.13;;;4.60;;
30096;SDS011;16915;51.466;3.610;2023-07-08T05:04:03;4.35;;;3.95;;
30096;SDS011;16915;51.466;3.610;2023-07-08T05:06:30;6.70;;;4.50;;
30096;SDS011;16915;51.466;3.610;2023-07-08T05:08:57;7.78;;;4.97;;
30096;SDS011;16915;51.466;3.610;2023-07-08T05:11:23;9.25;;;4.82;;
30096;SDS011;16915;51.466;3.610;2023-07-08T05:13:49;4.68;;;4.15;;
30096;SDS011;16915;51.466;3.610;2023-07-08T05:16:15;6.20;;;4.25;;
30096;SDS011;16915;51.466;3.610;2023-07-08T05:18:41;4.57;;;4.18;;
30096;SDS011;16915;51.466;3.610;2023-07-08T05:21:06;10.77;;;4.55;;
30096;SDS011;16915;51.466;3.610;2023-07-08T05:23:34;5.65;;;4.28;;
30096;SDS011;16915;51.466;3.610;2023-07-08T05:26:00;5.60;;;4.32;;
30096;SDS011;16915;51.466;3.610;2023-07-08T05:28:27;5.28;;;4.32;;
30096;SDS011;16915;51.466;3.610;2023-07-08T05:30:53;6.60;;;4.80;;
30096;SDS011;16915;51.466;3.610;2023-07-08T05:33:23;6.30;;;4.45;;
30096;SDS011;16915;51.466;3.610;2023-07-08T05:35:50;5.80;;;5.00;;
30096;SDS011;16915;51.466;3.610;2023-07-08T05:38:15;5.80;;;4.72;;
30096;SDS011;16915;51.466;3.610;2023-07-08T05:40:41;5.20;;;4.70;;
30096;SDS011;16915;51.466;3.610;2023-07-08T05:43:07;5.57;;;5.03;;
30096;SDS011;16915;51.466;3.610;2023-07-08T05:45:33;5.57;;;4.32;;
30096;SDS011;16915;51.466;3.610;2023-07-08T05:48:00;4.80;;;4.40;;
30096;SDS011;16915;51.466;3.610;2023-07-08T05:50:26;9.90;;;4.38;;
30096;SDS011;16915;51.466;3.610;2023-07-08T05:52:52;7.85;;;4.85;;
30096;SDS011;16915;51.466;3.610;2023-07-08T05:55:18;4.60;;;4.05;;
30096;SDS011;16915;51.466;3.610;2023-07-08T05:57:43;4.82;;;4.35;;
30096;SDS011;16915;51.466;3.610;2023-07-08T06:00:09;5.82;;;4.53;;
30096;SDS011;16915;51.466;3.610;2023-07-08T06:02:36;5.47;;;4.75;;
30096;SDS011;16915;51.466;3.610;2023-07-08T06:05:01;6.90;;;4.50;;
30096;SDS011;16915;51.466;3.610;2023-07-08T06:07:27;5.72;;;4.38;;
30096;SDS011;16915;51.466;3.610;2023-07-08T06:09:53;7.82;;;4.22;;
30096;SDS011;16915;51.466;3.610;2023-07-08T06:12:21;5.40;;;5.00;;
30096;SDS011;16915;51.466;3.610;2023-07-08T06:14:46;5.15;;;4.20;;
30096;SDS011;16915;51.466;3.610;2023-07-08T06:17:12;4.80;;;4.35;;
30096;SDS011;16915;51.466;3.610;2023-07-08T06:19:38;6.75;;;4.85;;
30096;SDS011;16915;51.466;3.610;2023-07-08T06:22:03;6.25;;;4.60;;
30096;SDS011;16915;51.466;3.610;2023-07-08T06:24:29;5.75;;;4.97;;
30096;SDS011;16915;51.466;3.610;2023-07-08T06:26:55;5.32;;;4.70;;
30096;SDS011;16915;51.466;3.610;2023-07-08T06:29:20;6.63;;;4.82;;
30096;SDS011;16915;51.466;3.610;2023-07-08T06:31:46;5.75;;;4.72;;
30096;SDS011;16915;51.466;3.610;2023-07-08T06:34:12;7.30;;;4.90;;
30096;SDS011;16915;51.466;3.610;2023-07-08T06:36:37;6.97;;;6.00;;
30096;SDS011;16915;51.466;3.610;2023-07-08T06:39:03;7.45;;;5.18;;
30096;SDS011;16915;51.466;3.610;2023-07-08T06:41:32;6.82;;;5.22;;
30096;SDS011;16915;51.466;3.610;2023-07-08T06:43:57;9.48;;;5.28;;
30096;SDS011;16915;51.466;3.610;2023-07-08T06:46:23;5.95;;;5.10;;
30096;SDS011;16915;51.466;3.610;2023-07-08T06:48:49;5.80;;;5.30;;
30096;SDS011;16915;51.466;3.610;2023-07-08T06:51:15;6.30;;;5.05;;
30096;SDS011;16915;51.466;3.610;2023-07-08T06:53:41;10.00;;;5.90;;
30096;SDS011;16915;51.466;3.610;2023-07-08T06:56:07;7.20;;;5.38;;
30096;SDS011;16915;51.466;3.610;2023-07-08T06:58:33;8.18;;;5.32;;
30096;SDS011;16915;51.466;3.610;2023-07-08T07:00:59;11.13;;;5.45;;
30096;SDS011;16915;51.466;3.610;2023-07-08T07:03:25;9.15;;;5.78;;
30096;SDS011;16915;51.466;3.610;2023-07-08T07:05:50;11.23;;;5.63;;
30096;SDS011;16915;51.466;3.610;2023-07-08T07:08:16;10.80;;;5.88;;
30096;SDS011;16915;51.466;3.610;2023-07-08T07:10:41;7.35;;;6.00;;
30096;SDS011;16915;51.466;3.610;2023-07-08T07:13:07;10.15;;;5.53;;
30096;SDS011;16915;51.466;3.610;2023-07-08T07:15:33;7.43;;;5.53;;
30096;SDS011;16915;51.466;3.610;2023-07-08T07:17:58;5.78;;;5.20;;
30096;SDS011;16915;51.466;3.610;2023-07-08T07:20:25;11.30;;;5.45;;
30096;SDS011;16915;51.466;3.610;2023-07-08T07:22:50;6.22;;;5.05;;
30096;SDS011;16915;51.466;3.610;2023-07-08T07:25:16;6.97;;;5.20;;
30096;SDS011;16915;51.466;3.610;2023-07-08T07:27:42;9.75;;;5.28;;
30096;SDS011;16915;51.466;3.610;2023-07-08T07:30:08;6.18;;;5.45;;
30096;SDS011;16915;51.466;3.610;2023-07-08T07:32:37;6.78;;;5.55;;
30096;SDS011;16915;51.466;3.610;2023-07-08T07:35:03;7.18;;;6.20;;
30096;SDS011;16915;51.466;3.610;2023-07-08T07:37:30;7.20;;;5.75;;
30096;SDS011;16915;51.466;3.610;2023-07-08T07:39:55;8.63;;;6.43;;
30096;SDS011;16915;51.466;3.610;2023-07-08T07:42:21;10.98;;;6.28;;
30096;SDS011;16915;51.466;3.610;2023-07-08T07:44:47;8.00;;;6.47;;
30096;SDS011;16915;51.466;3.610;2023-07-08T07:47:13;8.20;;;6.47;;
30096;SDS011;16915;51.466;3.610;2023-07-08T07:49:39;13.70;;;6.68;;
30096;SDS011;16915;51.466;3.610;2023-07-08T07:52:05;7.38;;;6.35;;
30096;SDS011;16915;51.466;3.610;2023-07-08T07:54:31;8.57;;;5.80;;
30096;SDS011;16915;51.466;3.610;2023-07-08T07:56:57;9.32;;;6.50;;
30096;SDS011;16915;51.466;3.610;2023-07-08T07:59:22;10.18;;;6.40;;
30096;SDS011;16915;51.466;3.610;2023-07-08T08:01:48;9.60;;;6.45;;
30096;SDS011;16915;51.466;3.610;2023-07-08T08:04:13;9.15;;;5.50;;
30096;SDS011;16915;51.466;3.610;2023-07-08T08:06:39;6.65;;;6.05;;
30096;SDS011;16915;51.466;3.610;2023-07-08T08:09:05;10.45;;;6.13;;
30096;SDS011;16915;51.466;3.610;2023-07-08T08:11:31;6.65;;;5.75;;
30096;SDS011;16915;51.466;3.610;2023-07-08T08:13:57;6.95;;;6.18;;
30096;SDS011;16915;51.466;3.610;2023-07-08T08:16:23;8.15;;;5.75;;
30096;SDS011;16915;51.466;3.610;2023-07-08T08:18:49;10.70;;;6.63;;
30096;SDS011;16915;51.466;3.610;2023-07-08T08:21:15;8.30;;;6.93;;
30096;SDS011;16915;51.466;3.610;2023-07-08T08:23:41;11.95;;;7.18;;
30096;SDS011;16915;51.466;3.610;2023-07-08T08:26:07;7.80;;;6.95;;
30096;SDS011;16915;51.466;3.610;2023-07-08T08:28:33;9.60;;;6.43;;
30096;SDS011;16915;51.466;3.610;2023-07-08T08:30:58;10.32;;;6.57;;
30096;SDS011;16915;51.466;3.610;2023-07-08T08:33:24;10.40;;;6.70;;
30096;SDS011;16915;51.466;3.610;2023-07-08T08:35:49;9.15;;;5.60;;
30096;SDS011;16915;51.466;3.610;2023-07-08T08:38:15;7.72;;;5.88;;
30096;SDS011;16915;51.466;3.610;2023-07-08T08:40:42;7.97;;;6.47;;
30096;SDS011;16915;51.466;3.610;2023-07-08T08:43:10;7.13;;;6.28;;
30096;SDS011;16915;51.466;3.610;2023-07-08T08:45:45;11.57;;;7.43;;
30096;SDS011;16915;51.466;3.610;2023-07-08T08:48:42;9.02;;;7.18;;
30096;SDS011;16915;51.466;3.610;2023-07-08T08:51:33;9.93;;;7.40;;
30096;SDS011;16915;51.466;3.610;2023-07-08T08:53:59;11.25;;;7.88;;
30096;SDS011;16915;51.466;3.610;2023-07-08T08:56:29;10.50;;;7.25;;
30096;SDS011;16915;51.466;3.610;2023-07-08T09:01:43;12.63;;;8.38;;
30096;SDS011;16915;51.466;3.610;2023-07-08T09:04:12;12.68;;;9.25;;
30096;SDS011;16915;51.466;3.610;2023-07-08T09:06:42;11.52;;;8.60;;
30096;SDS011;16915;51.466;3.610;2023-07-08T09:12:16;12.88;;;7.80;;
30096;SDS011;16915;51.466;3.610;2023-07-08T09:14:45;15.68;;;9.88;;
30096;SDS011;16915;51.466;3.610;2023-07-08T09:17:29;13.00;;;8.63;;
30096;SDS011;16915;51.466;3.610;2023-07-08T09:20:15;14.52;;;8.15;;
30096;SDS011;16915;51.466;3.610;2023-07-08T09:22:54;11.05;;;8.43;;
30096;SDS011;16915;51.466;3.610;2023-07-08T09:25:43;11.80;;;7.97;;
30096;SDS011;16915;51.466;3.610;2023-07-08T09:28:17;8.52;;;7.72;;
30096;SDS011;16915;51.466;3.610;2023-07-08T09:30:45;10.00;;;8.30;;
30096;SDS011;16915;51.466;3.610;2023-07-08T09:35:43;12.50;;;8.02;;
30096;SDS011;16915;51.466;3.610;2023-07-08T09:38:18;12.43;;;6.80;;
30096;SDS011;16915;51.466;3.610;2023-07-08T09:40:52;9.27;;;6.45;;
30096;SDS011;16915;51.466;3.610;2023-07-08T09:45:57;9.13;;;6.38;;
30096;SDS011;16915;51.466;3.610;2023-07-08T09:48:28;9.25;;;6.32;;
30096;SDS011;16915;51.466;3.610;2023-07-08T09:51:01;9.15;;;6.68;;
30096;SDS011;16915;51.466;3.610;2023-07-08T09:53:27;6.97;;;6.10;;
30096;SDS011;16915;51.466;3.610;2023-07-08T09:55:54;11.40;;;7.15;;
30096;SDS011;16915;51.466;3.610;2023-07-08T10:01:08;6.00;;;5.38;;
30096;SDS011;16915;51.466;3.610;2023-07-08T10:03:37;8.57;;;5.10;;
30096;SDS011;16915;51.466;3.610;2023-07-08T10:06:06;6.60;;;5.15;;
30096;SDS011;16915;51.466;3.610;2023-07-08T10:08:42;6.85;;;5.22;;
30096;SDS011;16915;51.466;3.610;2023-07-08T10:11:22;9.32;;;5.38;;
30096;SDS011;16915;51.466;3.610;2023-07-08T10:13:54;8.80;;;5.93;;
30096;SDS011;16915;51.466;3.610;2023-07-08T10:16:28;16.52;;;5.57;;
30096;SDS011;16915;51.466;3.610;2023-07-08T10:18:56;7.35;;;4.47;;
30096;SDS011;16915;51.466;3.610;2023-07-08T10:27:20;5.78;;;4.53;;
30096;SDS011;16915;51.466;3.610;2023-07-08T10:29:57;5.30;;;4.55;;
30096;SDS011;16915;51.466;3.610;2023-07-08T10:32:44;7.40;;;4.53;;
30096;SDS011;16915;51.466;3.610;2023-07-08T10:35:19;4.82;;;4.22;;
30096;SDS011;16915;51.466;3.610;2023-07-08T10:43:42;3.75;;;3.05;;
30096;SDS011;16915;51.466;3.610;2023-07-08T10:46:38;6.95;;;3.28;;
30096;SDS011;16915;51.466;3.610;2023-07-08T10:49:53;4.47;;;3.40;;
30096;SDS011;16915;51.466;3.610;2023-07-08T10:55:32;6.38;;;3.75;;
30096;SDS011;16915;51.466;3.610;2023-07-08T11:06:34;7.15;;;3.75;;
30096;SDS011;16915;51.466;3.610;2023-07-08T11:09:09;5.05;;;3.03;;
30096;SDS011;16915;51.466;3.610;2023-07-08T11:11:43;3.47;;;3.17;;
30096;SDS011;16915;51.466;3.610;2023-07-08T11:14:14;4.80;;;4.00;;
30096;SDS011;16915;51.466;3.610;2023-07-08T11:16:45;7.90;;;4.35;;
30096;SDS011;16915;51.466;3.610;2023-07-08T11:22:47;4.35;;;3.95;;
30096;SDS011;16915;51.466;3.610;2023-07-08T11:25:18;5.88;;;4.03;;
30096;SDS011;16915;51.466;3.610;2023-07-08T11:27:46;4.70;;;3.78;;
30096;SDS011;16915;51.466;3.610;2023-07-08T11:30:17;6.15;;;3.08;;
30096;SDS011;16915;51.466;3.610;2023-07-08T11:32:53;4.53;;;3.50;;
30096;SDS011;16915;51.466;3.610;2023-07-08T11:35:50;4.15;;;3.72;;
30096;SDS011;16915;51.466;3.610;2023-07-08T11:38:17;8.90;;;3.35;;
30096;SDS011;16915;51.466;3.610;2023-07-08T11:43:27;5.85;;;3.83;;
30096;SDS011;16915;51.466;3.610;2023-07-08T11:46:14;7.97;;;3.88;;
30096;SDS011;16915;51.466;3.610;2023-07-08T11:48:46;6.65;;;4.20;;
30096;SDS011;16915;51.466;3.610;2023-07-08T11:51:17;8.32;;;4.45;;
30096;SDS011;16915;51.466;3.610;2023-07-08T11:56:29;5.18;;;3.72;;
30096;SDS011;16915;51.466;3.610;2023-07-08T11:59:37;5.55;;;5.03;;
30096;SDS011;16915;51.466;3.610;2023-07-08T12:02:11;6.80;;;4.05;;
30096;SDS011;16915;51.466;3.610;2023-07-08T12:04:52;5.13;;;4.60;;
30096;SDS011;16915;51.466;3.610;2023-07-08T12:07:58;5.25;;;3.88;;
30096;SDS011;16915;51.466;3.610;2023-07-08T12:10:26;5.88;;;4.35;;
30096;SDS011;16915;51.466;3.610;2023-07-08T12:13:00;4.88;;;4.40;;
30096;SDS011;16915;51.466;3.610;2023-07-08T12:15:28;5.20;;;4.22;;
30096;SDS011;16915;51.466;3.610;2023-07-08T12:17:58;8.70;;;4.47;;
30096;SDS011;16915;51.466;3.610;2023-07-08T12:20:37;6.30;;;4.60;;
30096;SDS011;16915;51.466;3.610;2023-07-08T12:23:09;6.22;;;4.10;;
30096;SDS011;16915;51.466;3.610;2023-07-08T12:25:37;4.43;;;4.03;;
30096;SDS011;16915;51.466;3.610;2023-07-08T12:28:03;5.55;;;4.15;;
30096;SDS011;16915;51.466;3.610;2023-07-08T12:30:29;5.95;;;4.57;;
30096;SDS011;16915;51.466;3.610;2023-07-08T12:32:58;6.78;;;4.88;;
30096;SDS011;16915;51.466;3.610;2023-07-08T12:35:26;6.40;;;3.95;;
30096;SDS011;16915;51.466;3.610;2023-07-08T12:37:55;6.07;;;4.38;;
30096;SDS011;16915;51.466;3.610;2023-07-08T12:40:25;5.28;;;4.47;;
30096;SDS011;16915;51.466;3.610;2023-07-08T12:42:52;6.18;;;4.65;;
30096;SDS011;16915;51.466;3.610;2023-07-08T12:45:20;5.68;;;4.18;;
30096;SDS011;16915;51.466;3.610;2023-07-08T12:47:47;4.25;;;3.95;;
30096;SDS011;16915;51.466;3.610;2023-07-08T12:50:13;5.80;;;4.40;;
30096;SDS011;16915;51.466;3.610;2023-07-08T12:52:41;5.05;;;4.05;;
30096;SDS011;16915;51.466;3.610;2023-07-08T12:55:09;5.47;;;4.40;;
30096;SDS011;16915;51.466;3.610;2023-07-08T12:57:36;4.47;;;4.18;;
30096;SDS011;16915;51.466;3.610;2023-07-08T13:00:03;10.95;;;4.70;;
30096;SDS011;16915;51.466;3.610;2023-07-08T13:02:30;7.82;;;4.28;;
30096;SDS011;16915;51.466;3.610;2023-07-08T13:04:59;4.85;;;4.40;;
30096;SDS011;16915;51.466;3.610;2023-07-08T13:09:59;5.57;;;4.63;;
30096;SDS011;16915;51.466;3.610;2023-07-08T13:12:25;5.63;;;4.40;;
30096;SDS011;16915;51.466;3.610;2023-07-08T13:14:52;9.50;;;4.32;;
30096;SDS011;16915;51.466;3.610;2023-07-08T13:17:19;7.30;;;4.53;;
30096;SDS011;16915;51.466;3.610;2023-07-08T13:19:45;8.07;;;4.88;;
30096;SDS011;16915;51.466;3.610;2023-07-08T13:22:15;11.43;;;5.10;;
30096;SDS011;16915;51.466;3.610;2023-07-08T13:24:46;7.43;;;4.80;;
30096;SDS011;16915;51.466;3.610;2023-07-08T13:27:23;6.05;;;4.80;;
30096;SDS011;16915;51.466;3.610;2023-07-08T13:29:53;9.05;;;4.38;;
30096;SDS011;16915;51.466;3.610;2023-07-08T13:32:30;4.97;;;4.43;;
30096;SDS011;16915;51.466;3.610;2023-07-08T13:34:56;5.07;;;4.57;;
30096;SDS011;16915;51.466;3.610;2023-07-08T13:37:22;7.03;;;4.55;;
30096;SDS011;16915;51.466;3.610;2023-07-08T13:39:51;5.70;;;4.22;;
30096;SDS011;16915;51.466;3.610;2023-07-08T13:42:18;5.72;;;4.80;;
30096;SDS011;16915;51.466;3.610;2023-07-08T13:44:44;6.78;;;4.90;;
30096;SDS011;16915;51.466;3.610;2023-07-08T13:47:22;6.30;;;4.82;;
30096;SDS011;16915;51.466;3.610;2023-07-08T13:49:54;13.50;;;5.57;;
30096;SDS011;16915;51.466;3.610;2023-07-08T13:52:37;5.45;;;4.75;;
30096;SDS011;16915;51.466;3.610;2023-07-08T13:55:09;11.40;;;5.35;;
30096;SDS011;16915;51.466;3.610;2023-07-08T13:57:41;5.63;;;4.70;;
30096;SDS011;16915;51.466;3.610;2023-07-08T14:00:07;10.18;;;9.18;;
30096;SDS011;16915;51.466;3.610;2023-07-08T14:02:34;6.72;;;6.05;;
30096;SDS011;16915;51.466;3.610;2023-07-08T14:05:00;5.13;;;4.72;;
30096;SDS011;16915;51.466;3.610;2023-07-08T14:07:29;12.65;;;5.13;;
30096;SDS011;16915;51.466;3.610;2023-07-08T14:09:57;5.65;;;4.80;;
30096;SDS011;16915;51.466;3.610;2023-07-08T14:12:23;6.80;;;5.05;;
30096;SDS011;16915;51.466;3.610;2023-07-08T14:14:49;7.97;;;4.80;;
30096;SDS011;16915;51.466;3.610;2023-07-08T14:17:16;7.30;;;5.03;;
30096;SDS011;16915;51.466;3.610;2023-07-08T14:19:45;6.30;;;4.95;;
30096;SDS011;16915;51.466;3.610;2023-07-08T14:24:36;6.68;;;4.72;;
30096;SDS011;16915;51.466;3.610;2023-07-08T14:27:02;7.30;;;4.70;;
30096;SDS011;16915;51.466;3.610;2023-07-08T14:29:28;8.52;;;5.90;;
30096;SDS011;16915;51.466;3.610;2023-07-08T14:31:54;5.95;;;4.65;;
30096;SDS011;16915;51.466;3.610;2023-07-08T14:34:23;5.45;;;4.80;;
30096;SDS011;16915;51.466;3.610;2023-07-08T14:36:51;10.05;;;5.25;;
30096;SDS011;16915;51.466;3.610;2023-07-08T14:39:16;6.47;;;5.13;;
30096;SDS011;16915;51.466;3.610;2023-07-08T14:41:43;5.32;;;4.82;;
30096;SDS011;16915;51.466;3.610;2023-07-08T14:44:24;6.43;;;4.60;;
30096;SDS011;16915;51.466;3.610;2023-07-08T14:46:55;4.80;;;4.40;;
30096;SDS011;16915;51.466;3.610;2023-07-08T14:49:22;4.88;;;4.43;;
30096;SDS011;16915;51.466;3.610;2023-07-08T14:51:48;11.98;;;8.63;;
30096;SDS011;16915;51.466;3.610;2023-07-08T14:54:17;5.40;;;4.97;;
30096;SDS011;16915;51.466;3.610;2023-07-08T14:56:43;7.05;;;5.03;;
30096;SDS011;16915;51.466;3.610;2023-07-08T14:59:12;5.43;;;4.93;;
30096;SDS011;16915;51.466;3.610;2023-07-08T15:01:41;5.93;;;4.63;;
30096;SDS011;16915;51.466;3.610;2023-07-08T15:04:09;4.80;;;4.40;;
30096;SDS011;16915;51.466;3.610;2023-07-08T15:06:36;6.53;;;4.85;;
30096;SDS011;16915;51.466;3.610;2023-07-08T15:09:02;5.82;;;4.65;;
30096;SDS011;16915;51.466;3.610;2023-07-08T15:11:28;6.25;;;4.00;;
30096;SDS011;16915;51.466;3.610;2023-07-08T15:13:54;5.60;;;5.15;;
30096;SDS011;16915;51.466;3.610;2023-07-08T15:16:19;7.88;;;4.60;;
30096;SDS011;16915;51.466;3.610;2023-07-08T15:18:45;6.38;;;4.38;;
30096;SDS011;16915;51.466;3.610;2023-07-08T15:21:11;4.18;;;3.85;;
30096;SDS011;16915;51.466;3.610;2023-07-08T15:23:38;4.55;;;4.25;;
30096;SDS011;16915;51.466;3.610;2023-07-08T15:26:04;7.85;;;4.85;;
30096;SDS011;16915;51.466;3.610;2023-07-08T15:28:46;10.52;;;5.70;;
30096;SDS011;16915;51.466;3.610;2023-07-08T15:31:21;18.02;;;16.20;;
30096;SDS011;16915;51.466;3.610;2023-07-08T15:33:49;6.97;;;4.55;;
30096;SDS011;16915;51.466;3.610;2023-07-08T15:36:18;5.95;;;4.88;;
30096;SDS011;16915;51.466;3.610;2023-07-08T15:38:44;6.78;;;4.60;;
30096;SDS011;16915;51.466;3.610;2023-07-08T15:43:38;5.95;;;5.32;;
30096;SDS011;16915;51.466;3.610;2023-07-08T15:46:04;8.38;;;5.10;;
30096;SDS011;16915;51.466;3.610;2023-07-08T15:48:32;6.55;;;5.82;;
30096;SDS011;16915;51.466;3.610;2023-07-08T15:50:57;11.27;;;5.20;;